createdAt,value
2018-03-07T00:02:17.197Z,13.27
2018-03-07T00:04:55.428Z,13.50
2018-03-07T00:07:25.874Z,12.10
2018-03-07T00:10:12.623Z,13.37
2018-03-07T00:12:43.710Z,14.80
2018-03-07T00:15:36.617Z,15.37
2018-03-07T00:18:04.138Z,17.03
2018-03-07T00:20:31.698Z,14.13
2018-03-07T00:22:59.230Z,15.97
2018-03-07T00:25:31.964Z,16.23
2018-03-07T00:28:13.077Z,12.17
2018-03-07T00:30:40.605Z,16.50
2018-03-07T00:33:13.954Z,14.70
2018-03-07T00:35:49.502Z,12.97
2018-03-07T00:38:42.709Z,12.53
2018-03-07T00:41:13.816Z,15.27
2018-03-07T00:46:43.406Z,13.83
2018-03-07T00:49:10.921Z,13.27
2018-03-07T00:51:38.460Z,13.60
2018-03-07T00:54:19.484Z,13.40
2018-03-07T00:56:47.035Z,12.80
2018-03-07T00:59:19.884Z,13.67
2018-03-07T01:01:55.598Z,14.33
2018-03-07T01:04:23.118Z,15.90
2018-03-07T01:09:49.742Z,12.73
2018-03-07T01:15:10.765Z,13.27
2018-03-07T01:17:53.498Z,16.07
2018-03-07T01:20:21.222Z,13.63
2018-03-07T01:22:49.903Z,17.33
2018-03-07T01:25:17.420Z,14.00
2018-03-07T01:27:44.938Z,15.83
2018-03-07T01:30:19.701Z,16.70
2018-03-07T01:32:47.222Z,15.10
2018-03-07T01:35:25.483Z,15.90
2018-03-07T01:37:55.929Z,13.90
2018-03-07T01:40:26.055Z,13.77
2018-03-07T01:43:13.102Z,17.10
2018-03-07T01:45:55.154Z,15.67
2018-03-07T01:48:42.746Z,15.53
2018-03-07T01:54:07.936Z,14.10
2018-03-07T01:59:32.105Z,14.80
2018-03-07T02:04:53.612Z,18.07
2018-03-07T02:07:37.251Z,15.43
2018-03-07T02:10:19.095Z,15.77
2018-03-07T02:12:50.274Z,16.07
2018-03-07T02:15:19.952Z,14.83
2018-03-07T02:18:12.634Z,18.40
2018-03-07T02:20:40.174Z,15.13
2018-03-07T02:26:19.126Z,16.00
2018-03-07T02:28:46.682Z,16.07
2018-03-07T02:31:14.224Z,15.90
2018-03-07T02:33:41.775Z,15.03
2018-03-07T02:36:25.622Z,18.17
2018-03-07T02:38:55.923Z,13.60
2018-03-07T02:44:19.915Z,20.00
2018-03-07T02:46:55.653Z,16.83
2018-03-07T02:49:25.880Z,16.37
2018-03-07T02:52:07.219Z,18.73
2018-03-07T02:57:27.386Z,16.77
2018-03-07T03:00:01.463Z,15.03
2018-03-07T03:02:29.002Z,18.20
2018-03-07T03:04:56.524Z,18.23
2018-03-07T03:07:43.151Z,16.90
2018-03-07T03:13:07.798Z,15.50
2018-03-07T03:15:35.491Z,16.50
2018-03-07T03:18:03.027Z,17.93
2018-03-07T03:20:30.956Z,16.30
2018-03-07T03:23:13.146Z,18.30
2018-03-07T03:25:49.746Z,18.20
2018-03-07T03:28:17.264Z,16.83
2018-03-07T03:31:01.330Z,16.93
2018-03-07T03:33:28.854Z,16.47
2018-03-07T03:35:56.374Z,18.20
2018-03-07T03:38:25.986Z,18.77
2018-03-07T03:40:53.496Z,19.80
2018-03-07T03:46:14.547Z,18.20
2018-03-07T03:48:49.677Z,18.13
2018-03-07T03:51:19.946Z,19.03
2018-03-07T03:56:49.550Z,18.03
2018-03-07T03:59:19.986Z,16.67
2018-03-07T04:01:49.914Z,18.97
2018-03-07T04:04:17.826Z,18.90
2018-03-07T04:06:45.353Z,17.80
2018-03-07T04:09:31.249Z,20.90
2018-03-07T04:11:58.778Z,19.90
2018-03-07T04:14:37.562Z,17.50
2018-03-07T04:17:07.926Z,18.47
2018-03-07T04:19:35.462Z,18.07
2018-03-07T04:22:02.986Z,19.40
2018-03-07T04:27:25.843Z,19.17
2018-03-07T04:29:56.211Z,20.07
2018-03-07T04:32:31.678Z,23.93
2018-03-07T04:34:59.526Z,18.77
2018-03-07T04:37:27.448Z,18.23
2018-03-07T04:43:12.727Z,18.40
2018-03-07T04:45:44.029Z,19.10
2018-03-07T04:48:25.550Z,16.77
2018-03-07T04:50:53.285Z,15.07
2018-03-07T04:53:37.491Z,18.40
2018-03-07T04:56:05.016Z,20.27
2018-03-07T04:58:43.563Z,19.70
2018-03-07T05:01:11.135Z,18.20
2018-03-07T05:03:38.650Z,18.00
2018-03-07T05:06:19.366Z,18.90
2018-03-07T05:09:01.173Z,18.90
2018-03-07T05:11:32.039Z,18.73
2018-03-07T05:13:59.587Z,17.30
2018-03-07T05:16:43.373Z,18.03
2018-03-07T05:19:25.389Z,17.57
2018-03-07T05:22:07.170Z,18.03
2018-03-07T05:24:34.690Z,18.57
2018-03-07T05:27:19.189Z,18.47
2018-03-07T05:29:46.709Z,21.40
2018-03-07T05:32:14.228Z,21.90
2018-03-07T05:34:44.132Z,19.60
2018-03-07T05:37:11.651Z,19.47
2018-03-07T05:39:49.701Z,20.00
2018-03-07T05:42:19.877Z,21.30
2018-03-07T05:44:55.564Z,18.47
2018-03-07T05:47:31.607Z,19.83
2018-03-07T05:50:13.262Z,20.23
2018-03-07T05:52:49.694Z,21.63
2018-03-07T05:55:17.618Z,19.70
2018-03-07T05:58:01.210Z,24.10
2018-03-07T06:00:28.738Z,23.00
2018-03-07T06:03:18.780Z,19.83
2018-03-07T06:05:50.058Z,21.30
2018-03-07T06:08:17.575Z,23.53
2018-03-07T06:10:45.095Z,20.03
2018-03-07T06:13:13.010Z,20.73
2018-03-07T06:18:33.314Z,22.23
2018-03-07T06:21:00.888Z,20.97
2018-03-07T06:26:21.564Z,21.40
2018-03-07T06:29:01.808Z,23.70
2018-03-07T06:31:49.367Z,22.03
2018-03-07T06:34:31.344Z,21.70
2018-03-07T06:37:24.730Z,25.70
2018-03-07T06:39:52.259Z,23.10
2018-03-07T06:42:19.786Z,23.20
2018-03-07T06:44:49.911Z,22.07
2018-03-07T06:47:42.822Z,23.67
2018-03-07T06:50:14.106Z,26.13
2018-03-07T06:52:41.637Z,26.03
2018-03-07T06:55:25.354Z,23.57
2018-03-07T06:58:01.791Z,24.03
2018-03-07T07:00:32.008Z,23.40
2018-03-07T07:06:07.408Z,24.70
2018-03-07T07:11:32.086Z,23.30
2018-03-07T07:14:02.189Z,23.20
2018-03-07T07:16:49.467Z,22.90
2018-03-07T07:19:20.030Z,23.77
2018-03-07T07:22:12.931Z,24.07
2018-03-07T07:24:40.452Z,26.00
2018-03-07T07:30:24.869Z,23.27
2018-03-07T07:32:55.978Z,22.33
2018-03-07T07:35:37.296Z,26.27
2018-03-07T07:38:04.910Z,24.57
2018-03-07T07:40:37.986Z,23.77
2018-03-07T07:43:07.944Z,22.83
2018-03-07T07:45:35.450Z,22.00
2018-03-07T07:48:02.973Z,25.27
2018-03-07T07:50:30.495Z,23.77
2018-03-07T07:53:13.658Z,26.83
2018-03-07T07:55:41.169Z,24.20
2018-03-07T07:58:25.366Z,24.13
2018-03-07T08:00:52.878Z,25.77
2018-03-07T08:03:26.299Z,25.60
2018-03-07T08:05:53.833Z,24.57
2018-03-07T08:08:21.391Z,25.87
2018-03-07T08:10:54.162Z,25.97
2018-03-07T08:13:25.927Z,25.57
2018-03-07T08:15:53.452Z,27.00
2018-03-07T08:18:42.990Z,27.60
2018-03-07T08:21:10.515Z,26.50
2018-03-07T08:23:49.827Z,24.47
2018-03-07T08:26:36.931Z,27.33
2018-03-07T08:29:19.448Z,27.37
2018-03-07T08:35:00.849Z,25.80
2018-03-07T08:37:32.014Z,25.47
2018-03-07T08:39:59.525Z,26.30
2018-03-07T08:42:27.055Z,27.60
2018-03-07T08:44:54.572Z,24.20
2018-03-07T08:50:15.778Z,25.53
2018-03-07T08:52:49.783Z,25.83
2018-03-07T08:55:17.318Z,26.33
2018-03-07T08:58:01.547Z,28.33
2018-03-07T09:00:37.810Z,26.80
2018-03-07T09:03:05.302Z,23.70
2018-03-07T09:05:33.021Z,25.57
2018-03-07T09:08:00.550Z,24.50
2018-03-07T09:10:43.430Z,25.10
2018-03-07T09:13:10.953Z,23.40
2018-03-07T09:24:17.172Z,24.70
2018-03-07T09:27:01.314Z,27.27
2018-03-07T09:32:42.866Z,26.50
2018-03-07T09:35:14.030Z,28.70
2018-03-07T09:37:41.562Z,30.80
2018-03-07T09:40:09.089Z,27.43
2018-03-07T09:42:36.633Z,27.20
2018-03-07T09:45:30.844Z,27.33
2018-03-07T09:48:02.094Z,25.10
2018-03-07T09:50:29.648Z,27.00
2018-03-07T09:55:50.953Z,23.70
2018-03-07T09:58:18.863Z,24.80
2018-03-07T10:00:46.381Z,23.43
2018-03-07T10:03:14.121Z,23.83
2018-03-07T10:05:41.647Z,22.53
2018-03-07T10:08:30.988Z,29.60
2018-03-07T10:10:58.520Z,23.20
2018-03-07T10:13:37.813Z,23.93
2018-03-07T10:16:13.706Z,24.07
2018-03-07T10:18:41.259Z,24.10
2018-03-07T10:24:19.573Z,21.37
2018-03-07T10:27:06.971Z,22.30
2018-03-07T10:29:34.538Z,19.10
2018-03-07T10:32:08.176Z,23.60
2018-03-07T10:34:36.223Z,21.73
2018-03-07T10:37:08.038Z,22.33
2018-03-07T10:39:43.714Z,20.43
2018-03-07T10:42:11.254Z,22.60
2018-03-07T10:44:49.939Z,19.97
2018-03-07T10:47:25.689Z,20.40
2018-03-07T10:49:56.198Z,18.20
2018-03-07T10:55:25.794Z,16.57
2018-03-07T10:57:56.058Z,17.90
2018-03-07T11:00:48.940Z,18.30
2018-03-07T11:03:20.247Z,18.90
2018-03-07T11:05:47.771Z,17.70
2018-03-07T11:08:15.314Z,19.40
2018-03-07T11:10:44.147Z,17.30
2018-03-07T11:13:14.062Z,18.37
2018-03-07T11:15:49.743Z,17.30
2018-03-07T11:18:20.139Z,16.30
2018-03-07T11:21:01.459Z,18.10
2018-03-07T11:23:32.250Z,17.57
2018-03-07T11:26:02.063Z,15.43
2018-03-07T11:31:31.886Z,16.27
2018-03-07T11:34:02.215Z,15.20
2018-03-07T11:36:34.002Z,14.40
2018-03-07T11:39:13.721Z,12.53
2018-03-07T11:41:41.303Z,14.00
2018-03-07T11:44:19.766Z,13.73
2018-03-07T11:46:47.391Z,15.77
2018-03-07T11:49:31.395Z,13.30
2018-03-07T11:52:07.935Z,13.67
2018-03-07T11:54:38.171Z,13.23
2018-03-07T11:57:13.759Z,10.90
2018-03-07T11:59:55.452Z,12.87
2018-03-07T12:05:31.475Z,11.93
2018-03-07T12:08:02.227Z,12.77
2018-03-07T12:10:32.082Z,13.13
2018-03-07T12:13:25.043Z,12.20
2018-03-07T12:16:07.559Z,12.67
2018-03-07T12:18:35.075Z,11.60
2018-03-07T12:21:08.300Z,10.23
2018-03-07T12:23:43.743Z,10.87
2018-03-07T12:29:08.090Z,11.57
2018-03-07T12:31:55.598Z,11.73
2018-03-07T12:34:23.123Z,8.37
2018-03-07T12:37:07.414Z,9.43
2018-03-07T12:39:34.935Z,10.00
2018-03-07T12:42:25.038Z,9.27
2018-03-07T12:48:01.592Z,10.73
2018-03-07T12:50:49.060Z,10.60
2018-03-07T12:53:20.121Z,10.47
2018-03-07T12:55:47.778Z,10.33
2018-03-07T13:01:14.230Z,9.43
2018-03-07T13:04:07.135Z,8.47
2018-03-07T13:06:55.275Z,9.80
2018-03-07T13:09:22.791Z,8.83
2018-03-07T13:12:01.915Z,9.10
2018-03-07T13:14:43.552Z,11.13
2018-03-07T13:17:11.147Z,8.83
2018-03-07T13:19:44.238Z,8.80
2018-03-07T13:22:25.484Z,8.27
2018-03-07T13:25:07.586Z,12.50
2018-03-07T13:30:28.908Z,7.63
2018-03-07T13:33:07.981Z,7.70
2018-03-07T13:35:55.593Z,8.20
2018-03-07T13:38:26.188Z,8.00
2018-03-07T13:43:46.450Z,7.37
2018-03-07T13:46:14.186Z,9.47
2018-03-07T13:48:41.713Z,7.43
2018-03-07T13:51:09.230Z,7.60
2018-03-07T13:53:36.757Z,7.17
2018-03-07T13:56:04.273Z,6.50
2018-03-07T13:58:31.791Z,6.67
2018-03-07T14:01:13.462Z,6.60
2018-03-07T14:06:34.327Z,6.70
2018-03-07T14:09:24.966Z,6.47
2018-03-07T14:12:01.862Z,5.97
2018-03-07T14:14:32.129Z,7.03
2018-03-07T14:17:19.466Z,6.53
2018-03-07T14:19:46.983Z,5.70
2018-03-07T14:22:14.514Z,5.80
2018-03-07T14:24:44.247Z,6.40
2018-03-07T14:30:08.470Z,5.20
2018-03-07T14:38:37.857Z,5.43
2018-03-07T14:41:08.354Z,5.00
2018-03-07T14:43:44.080Z,4.90
2018-03-07T14:46:12.035Z,5.70
2018-03-07T14:48:50.091Z,5.50
2018-03-07T14:51:17.804Z,5.20
2018-03-07T14:53:56.212Z,6.97
2018-03-07T14:56:23.723Z,6.97
2018-03-07T14:58:51.294Z,5.60
2018-03-07T15:01:18.810Z,5.10
2018-03-07T15:03:49.172Z,5.17
2018-03-07T15:06:20.375Z,5.13
2018-03-07T15:09:07.498Z,5.57
2018-03-07T15:11:44.042Z,4.80
2018-03-07T15:14:19.890Z,4.60
2018-03-07T15:16:50.311Z,6.00
2018-03-07T15:19:17.906Z,6.73
2018-03-07T15:24:44.181Z,5.07
2018-03-07T15:27:14.342Z,5.10
2018-03-07T15:35:27.103Z,4.50
2018-03-07T15:37:55.025Z,4.93
2018-03-07T15:40:22.554Z,4.70
2018-03-07T15:42:50.274Z,5.27
2018-03-07T15:45:17.806Z,4.83
2018-03-07T15:47:45.322Z,5.03
2018-03-07T15:50:12.856Z,4.97
2018-03-07T15:52:55.519Z,4.47
2018-03-07T15:55:23.046Z,6.67
2018-03-07T16:00:44.220Z,4.37
2018-03-07T16:03:11.750Z,3.80
2018-03-07T16:05:39.359Z,4.43
2018-03-07T16:08:19.676Z,4.23
2018-03-07T16:16:32.768Z,4.20
2018-03-07T16:19:02.386Z,3.70
2018-03-07T16:21:29.946Z,3.60
2018-03-07T16:23:57.467Z,3.77
2018-03-07T16:26:26.397Z,3.40
2018-03-07T16:28:53.920Z,3.23
2018-03-07T16:31:32.075Z,4.20
2018-03-07T16:34:08.120Z,3.50
2018-03-07T16:36:35.695Z,4.30
2018-03-07T16:39:08.460Z,3.43
2018-03-07T16:41:35.967Z,3.67
2018-03-07T16:44:03.480Z,3.67
2018-03-07T16:46:37.870Z,4.20
2018-03-07T16:49:05.394Z,3.67
2018-03-07T16:51:32.907Z,3.50
2018-03-07T16:54:07.871Z,3.57
2018-03-07T16:56:38.330Z,3.87
2018-03-07T16:59:05.899Z,3.37
2018-03-07T17:01:33.411Z,3.90
2018-03-07T17:04:08.130Z,3.83
2018-03-07T17:06:43.966Z,3.73
2018-03-07T17:09:20.015Z,3.40
2018-03-07T17:11:47.575Z,3.70
2018-03-07T17:14:25.976Z,3.60
2018-03-07T17:19:55.899Z,3.70
2018-03-07T17:22:43.188Z,3.90
2018-03-07T17:25:31.047Z,4.40
2018-03-07T17:28:02.425Z,3.77
2018-03-07T17:30:43.795Z,3.93
2018-03-07T17:33:11.309Z,3.83
2018-03-07T17:35:50.056Z,3.73
2018-03-07T17:38:17.570Z,4.50
2018-03-07T17:40:56.023Z,3.33
2018-03-07T17:43:26.288Z,2.90
2018-03-07T17:45:54.157Z,3.43
2018-03-07T17:48:43.079Z,3.90
2018-03-07T17:51:14.254Z,3.10
2018-03-07T17:53:50.004Z,3.93
2018-03-07T17:56:26.082Z,3.70
2018-03-07T17:58:53.975Z,3.40
2018-03-07T18:01:21.554Z,3.20
2018-03-07T18:03:50.363Z,2.77
2018-03-07T18:06:26.088Z,3.60
2018-03-07T18:08:56.554Z,3.10
2018-03-07T18:11:37.171Z,3.00
2018-03-07T18:14:05.087Z,3.40
2018-03-07T18:16:38.372Z,3.93
2018-03-07T18:25:13.304Z,2.70
2018-03-07T18:27:40.823Z,2.57
2018-03-07T18:33:02.323Z,3.60
2018-03-07T18:35:49.593Z,2.97
2018-03-07T18:38:17.146Z,2.77
2018-03-07T18:40:44.665Z,3.00
2018-03-07T18:43:20.019Z,2.33
2018-03-07T18:45:47.945Z,2.70
2018-03-07T18:48:31.756Z,2.53
2018-03-07T18:51:19.201Z,2.63
2018-03-07T18:54:01.608Z,3.10
2018-03-07T18:56:55.105Z,2.43
2018-03-07T18:59:37.730Z,3.27
2018-03-07T19:02:08.384Z,2.60
2018-03-07T19:04:49.737Z,2.47
2018-03-07T19:07:17.277Z,2.50
2018-03-07T19:09:50.581Z,2.27
2018-03-07T19:12:26.121Z,2.60
2018-03-07T19:17:46.180Z,2.50
2018-03-07T19:26:00.517Z,2.37
2018-03-07T19:28:28.034Z,2.20
2018-03-07T19:31:07.994Z,2.17
2018-03-07T19:33:38.311Z,2.00
2018-03-07T19:36:13.959Z,1.93
2018-03-07T19:38:41.800Z,2.23
2018-03-07T19:41:14.340Z,1.97
2018-03-07T19:43:41.863Z,1.70
2018-03-07T19:49:02.577Z,2.17
2018-03-07T19:51:43.834Z,2.20
2018-03-07T19:57:04.458Z,2.07
2018-03-07T19:59:31.982Z,2.20
2018-03-07T20:01:59.894Z,2.43
2018-03-07T20:04:38.102Z,2.07
2018-03-07T20:07:19.750Z,2.30
2018-03-07T20:09:50.560Z,2.47
2018-03-07T20:12:18.082Z,3.23
2018-03-07T20:14:45.604Z,2.20
2018-03-07T20:17:13.133Z,2.30
2018-03-07T20:19:40.650Z,2.60
2018-03-07T20:22:08.454Z,2.23
2018-03-07T20:24:38.391Z,2.40
2018-03-07T20:27:08.489Z,2.63
2018-03-07T20:29:36.026Z,2.37
2018-03-07T20:35:08.006Z,2.17
2018-03-07T20:37:38.487Z,2.70
2018-03-07T20:40:08.392Z,1.87
2018-03-07T20:42:44.031Z,2.77
2018-03-07T20:45:14.400Z,1.83
2018-03-07T20:47:55.907Z,3.00
2018-03-07T20:50:23.495Z,2.43
2018-03-07T20:52:51.495Z,2.80
2018-03-07T20:55:19.001Z,2.73
2018-03-07T20:57:46.514Z,2.57
2018-03-07T21:00:26.201Z,3.00
2018-03-07T21:02:53.716Z,2.27
2018-03-07T21:05:26.582Z,2.70
2018-03-07T21:08:07.862Z,2.50
2018-03-07T21:13:32.475Z,2.80
2018-03-07T21:16:19.291Z,2.70
2018-03-07T21:18:46.806Z,2.90
2018-03-07T21:24:08.600Z,3.07
2018-03-07T21:26:36.318Z,2.57
2018-03-07T21:29:08.700Z,3.07
2018-03-07T21:31:38.717Z,2.77
2018-03-07T21:34:31.191Z,3.20
2018-03-07T21:37:02.456Z,2.87
2018-03-07T21:39:29.962Z,2.63
2018-03-07T21:42:02.436Z,2.87
2018-03-07T21:44:38.133Z,3.07
2018-03-07T21:47:05.646Z,3.27
2018-03-07T21:49:33.183Z,3.00
2018-03-07T21:52:00.731Z,3.30
2018-03-07T21:54:28.244Z,2.93
2018-03-07T21:56:55.757Z,4.07
2018-03-07T21:59:23.665Z,3.57
2018-03-07T22:01:51.179Z,3.33
2018-03-07T22:04:19.099Z,3.23
2018-03-07T22:06:50.501Z,3.60
2018-03-07T22:09:26.043Z,4.17
2018-03-07T22:12:13.866Z,3.90
2018-03-07T22:17:34.419Z,3.73
2018-03-07T22:20:14.066Z,4.20
2018-03-07T22:22:44.444Z,4.23
2018-03-07T22:25:37.368Z,4.40
2018-03-07T22:28:08.378Z,4.37
2018-03-07T22:33:49.320Z,4.23
2018-03-07T22:36:20.491Z,4.40
2018-03-07T22:38:48.416Z,4.40
2018-03-07T22:41:15.933Z,4.70
2018-03-07T22:46:38.478Z,5.93
2018-03-07T22:49:31.216Z,5.63
2018-03-07T22:54:52.423Z,6.07
2018-03-07T23:00:25.199Z,6.77
2018-03-07T23:05:50.450Z,6.40
2018-03-07T23:11:10.833Z,7.40
2018-03-07T23:13:38.364Z,6.57
2018-03-07T23:16:08.569Z,6.93
2018-03-07T23:21:32.564Z,7.67
2018-03-07T23:26:53.203Z,9.30
2018-03-07T23:29:20.728Z,9.07
2018-03-07T23:32:07.828Z,8.57
2018-03-07T23:34:49.759Z,8.70
2018-03-07T23:37:32.063Z,8.60
2018-03-07T23:40:13.744Z,8.00
2018-03-07T23:42:55.752Z,9.70
2018-03-07T23:45:32.088Z,8.73
2018-03-07T23:48:02.619Z,10.00
2018-03-07T23:50:30.267Z,8.50
2018-03-07T23:53:19.304Z,9.03
2018-03-07T23:55:46.802Z,8.03
2018-03-07T23:58:26.163Z,9.13
